sensor_id;sensor_type;location;lat;lon;timestamp;temperature;humidity
15298;DHT22;7750;48.796;9.026;2022-07-17T00:04:16;21.30;47.50
15298;DHT22;7750;48.796;9.026;2022-07-17T00:09:16;21.20;47.80
15298;DHT22;7750;48.796;9.026;2022-07-17T00:14:17;21.10;47.90
15298;DHT22;7750;48.796;9.026;2022-07-17T00:19:18;21.00;48.10
15298;DHT22;7750;48.796;9.026;2022-07-17T00:24:19;21.00;48.30
15298;DHT22;7750;48.796;9.026;2022-07-17T00:29:22;20.90;48.40
15298;DHT22;7750;48.796;9.026;2022-07-17T00:34:23;20.80;48.70
15298;DHT22;7750;48.796;9.026;2022-07-17T00:39:24;20.70;48.90
15298;DHT22;7750;48.796;9.026;2022-07-17T00:44:26;20.60;49.00
15298;DHT22;7750;48.796;9.026;2022-07-17T00:49:27;20.60;49.20
15298;DHT22;7750;48.796;9.026;2022-07-17T00:54:29;20.40;49.20
15298;DHT22;7750;48.796;9.026;2022-07-17T00:59:32;20.40;49.60
15298;DHT22;7750;48.796;9.026;2022-07-17T01:04:34;20.30;49.70
15298;DHT22;7750;48.796;9.026;2022-07-17T01:09:35;20.20;49.80
15298;DHT22;7750;48.796;9.026;2022-07-17T01:14:36;20.10;50.00
15298;DHT22;7750;48.796;9.026;2022-07-17T01:19:37;20.10;50.20
15298;DHT22;7750;48.796;9.026;2022-07-17T01:24:41;20.00;50.40
15298;DHT22;7750;48.796;9.026;2022-07-17T01:29:42;19.90;50.70
15298;DHT22;7750;48.796;9.026;2022-07-17T01:34:43;19.80;50.70
15298;DHT22;7750;48.796;9.026;2022-07-17T01:39:43;19.80;50.90
15298;DHT22;7750;48.796;9.026;2022-07-17T01:44:54;19.70;50.90
15298;DHT22;7750;48.796;9.026;2022-07-17T01:49:56;19.60;51.20
15298;DHT22;7750;48.796;9.026;2022-07-17T01:54:57;19.60;51.30
15298;DHT22;7750;48.796;9.026;2022-07-17T01:59:58;19.50;51.40
15298;DHT22;7750;48.796;9.026;2022-07-17T02:04:58;19.40;51.50
15298;DHT22;7750;48.796;9.026;2022-07-17T02:09:59;19.40;51.60
15298;DHT22;7750;48.796;9.026;2022-07-17T02:15:00;19.30;51.60
15298;DHT22;7750;48.796;9.026;2022-07-17T02:20:00;19.30;51.80
15298;DHT22;7750;48.796;9.026;2022-07-17T02:25:01;19.20;52.10
15298;DHT22;7750;48.796;9.026;2022-07-17T02:30:08;19.20;52.10
15298;DHT22;7750;48.796;9.026;2022-07-17T02:35:10;19.10;52.50
15298;DHT22;7750;48.796;9.026;2022-07-17T02:40:12;19.00;52.40
15298;DHT22;7750;48.796;9.026;2022-07-17T02:45:12;18.90;52.50
15298;DHT22;7750;48.796;9.026;2022-07-17T02:50:13;18.90;52.70
15298;DHT22;7750;48.796;9.026;2022-07-17T02:55:14;18.80;52.70
15298;DHT22;7750;48.796;9.026;2022-07-17T03:00:16;18.80;52.90
15298;DHT22;7750;48.796;9.026;2022-07-17T03:05:17;18.70;53.10
15298;DHT22;7750;48.796;9.026;2022-07-17T03:10:17;18.70;53.20
15298;DHT22;7750;48.796;9.026;2022-07-17T03:15:18;18.60;53.20
15298;DHT22;7750;48.796;9.026;2022-07-17T03:20:19;18.50;53.30
15298;DHT22;7750;48.796;9.026;2022-07-17T03:25:19;18.40;53.40
15298;DHT22;7750;48.796;9.026;2022-07-17T03:30:20;18.40;53.60
15298;DHT22;7750;48.796;9.026;2022-07-17T03:35:21;18.30;53.60
15298;DHT22;7750;48.796;9.026;2022-07-17T03:40:21;18.20;53.80
15298;DHT22;7750;48.796;9.026;2022-07-17T03:45:22;18.20;54.10
15298;DHT22;7750;48.796;9.026;2022-07-17T03:50:23;18.10;54.20
15298;DHT22;7750;48.796;9.026;2022-07-17T03:55:23;18.00;54.40
15298;DHT22;7750;48.796;9.026;2022-07-17T04:00:24;17.90;54.60
15298;DHT22;7750;48.796;9.026;2022-07-17T04:05:25;17.90;54.80
15298;DHT22;7750;48.796;9.026;2022-07-17T04:10:25;17.90;55.00
15298;DHT22;7750;48.796;9.026;2022-07-17T04:15:26;17.80;55.10
15298;DHT22;7750;48.796;9.026;2022-07-17T04:20:45;17.80;55.30
15298;DHT22;7750;48.796;9.026;2022-07-17T04:25:46;17.70;55.40
15298;DHT22;7750;48.796;9.026;2022-07-17T04:30:47;17.70;55.60
15298;DHT22;7750;48.796;9.026;2022-07-17T04:35:48;17.70;55.90
15298;DHT22;7750;48.796;9.026;2022-07-17T04:40:48;17.70;56.10
15298;DHT22;7750;48.796;9.026;2022-07-17T04:45:49;17.70;56.10
15298;DHT22;7750;48.796;9.026;2022-07-17T04:50:50;17.70;56.20
15298;DHT22;7750;48.796;9.026;2022-07-17T04:55:51;17.70;56.20
15298;DHT22;7750;48.796;9.026;2022-07-17T05:00:51;17.70;56.50
15298;DHT22;7750;48.796;9.026;2022-07-17T05:05:52;17.70;56.60
15298;DHT22;7750;48.796;9.026;2022-07-17T05:10:53;17.70;56.60
15298;DHT22;7750;48.796;9.026;2022-07-17T05:15:53;17.80;56.80
15298;DHT22;7750;48.796;9.026;2022-07-17T05:20:54;17.80;57.00
15298;DHT22;7750;48.796;9.026;2022-07-17T05:25:55;17.90;57.10
15298;DHT22;7750;48.796;9.026;2022-07-17T05:30:56;18.00;57.40
15298;DHT22;7750;48.796;9.026;2022-07-17T05:35:56;18.20;57.60
15298;DHT22;7750;48.796;9.026;2022-07-17T05:40:57;18.30;57.60
15298;DHT22;7750;48.796;9.026;2022-07-17T05:45:58;18.50;57.70
15298;DHT22;7750;48.796;9.026;2022-07-17T05:50:59;18.70;57.60
15298;DHT22;7750;48.796;9.026;2022-07-17T05:55:59;18.80;57.60
15298;DHT22;7750;48.796;9.026;2022-07-17T06:01:00;19.00;57.50
15298;DHT22;7750;48.796;9.026;2022-07-17T06:06:00;19.20;57.70
15298;DHT22;7750;48.796;9.026;2022-07-17T06:11:01;19.40;57.20
15298;DHT22;7750;48.796;9.026;2022-07-17T06:16:02;19.70;56.90
15298;DHT22;7750;48.796;9.026;2022-07-17T06:21:02;19.90;56.60
15298;DHT22;7750;48.796;9.026;2022-07-17T06:26:04;20.10;57.40
15298;DHT22;7750;48.796;9.026;2022-07-17T06:31:04;20.40;56.60
15298;DHT22;7750;48.796;9.026;2022-07-17T06:36:05;20.60;56.30
15298;DHT22;7750;48.796;9.026;2022-07-17T06:41:06;20.90;56.00
15298;DHT22;7750;48.796;9.026;2022-07-17T06:46:06;21.10;55.80
15298;DHT22;7750;48.796;9.026;2022-07-17T06:51:07;21.50;55.80
15298;DHT22;7750;48.796;9.026;2022-07-17T06:56:08;21.90;55.80
15298;DHT22;7750;48.796;9.026;2022-07-17T07:01:08;22.30;55.30
15298;DHT22;7750;48.796;9.026;2022-07-17T07:06:09;22.80;55.00
15298;DHT22;7750;48.796;9.026;2022-07-17T07:11:10;23.30;54.70
15298;DHT22;7750;48.796;9.026;2022-07-17T07:16:10;23.80;53.70
15298;DHT22;7750;48.796;9.026;2022-07-17T07:21:11;24.30;53.60
15298;DHT22;7750;48.796;9.026;2022-07-17T07:26:12;24.70;53.00
15298;DHT22;7750;48.796;9.026;2022-07-17T07:31:12;25.10;52.30
15298;DHT22;7750;48.796;9.026;2022-07-17T07:36:13;25.50;51.40
15298;DHT22;7750;48.796;9.026;2022-07-17T07:41:14;25.90;51.00
15298;DHT22;7750;48.796;9.026;2022-07-17T07:46:14;26.30;50.40
15298;DHT22;7750;48.796;9.026;2022-07-17T07:51:15;26.60;49.70
15298;DHT22;7750;48.796;9.026;2022-07-17T07:56:16;27.00;49.40
15298;DHT22;7750;48.796;9.026;2022-07-17T08:01:16;27.40;48.90
15298;DHT22;7750;48.796;9.026;2022-07-17T08:06:17;27.80;48.30
15298;DHT22;7750;48.796;9.026;2022-07-17T08:11:17;28.10;47.70
15298;DHT22;7750;48.796;9.026;2022-07-17T08:16:18;28.50;46.40
15298;DHT22;7750;48.796;9.026;2022-07-17T08:21:19;28.70;46.00
15298;DHT22;7750;48.796;9.026;2022-07-17T08:26:20;28.90;45.50
15298;DHT22;7750;48.796;9.026;2022-07-17T08:31:21;29.00;45.40
15298;DHT22;7750;48.796;9.026;2022-07-17T08:36:33;29.20;44.50
15298;DHT22;7750;48.796;9.026;2022-07-17T08:41:53;29.30;44.30
15298;DHT22;7750;48.796;9.026;2022-07-17T08:46:54;29.50;42.80
15298;DHT22;7750;48.796;9.026;2022-07-17T08:51:55;29.40;43.30
15298;DHT22;7750;48.796;9.026;2022-07-17T08:57:03;29.30;43.30
15298;DHT22;7750;48.796;9.026;2022-07-17T09:02:34;29.20;43.20
15298;DHT22;7750;48.796;9.026;2022-07-17T09:07:46;29.10;42.70
15298;DHT22;7750;48.796;9.026;2022-07-17T09:12:47;28.90;42.70
15298;DHT22;7750;48.796;9.026;2022-07-17T09:17:49;28.70;42.20
15298;DHT22;7750;48.796;9.026;2022-07-17T09:23:02;28.60;42.80
15298;DHT22;7750;48.796;9.026;2022-07-17T09:28:05;28.50;42.10
15298;DHT22;7750;48.796;9.026;2022-07-17T09:33:27;28.40;42.30
15298;DHT22;7750;48.796;9.026;2022-07-17T09:38:48;28.40;42.30
15298;DHT22;7750;48.796;9.026;2022-07-17T09:43:56;28.40;42.30
15298;DHT22;7750;48.796;9.026;2022-07-17T09:49:06;28.50;42.60
15298;DHT22;7750;48.796;9.026;2022-07-17T09:54:27;28.60;41.70
15298;DHT22;7750;48.796;9.026;2022-07-17T09:59:34;28.60;40.40
15298;DHT22;7750;48.796;9.026;2022-07-17T10:04:36;28.60;40.80
15298;DHT22;7750;48.796;9.026;2022-07-17T10:09:37;28.60;41.00
15298;DHT22;7750;48.796;9.026;2022-07-17T10:14:38;28.70;40.10
15298;DHT22;7750;48.796;9.026;2022-07-17T10:20:00;29.50;37.50
15298;DHT22;7750;48.796;9.026;2022-07-17T10:25:04;29.40;39.40
15298;DHT22;7750;48.796;9.026;2022-07-17T10:30:10;29.50;38.80
15298;DHT22;7750;48.796;9.026;2022-07-17T10:35:11;29.70;38.30
15298;DHT22;7750;48.796;9.026;2022-07-17T10:40:18;29.80;38.70
15298;DHT22;7750;48.796;9.026;2022-07-17T10:50:26;30.30;38.50
15298;DHT22;7750;48.796;9.026;2022-07-17T10:55:28;30.50;37.80
15298;DHT22;7750;48.796;9.026;2022-07-17T11:00:42;30.50;36.50
15298;DHT22;7750;48.796;9.026;2022-07-17T11:05:42;30.60;36.40
15298;DHT22;7750;48.796;9.026;2022-07-17T11:10:45;30.70;37.20
15298;DHT22;7750;48.796;9.026;2022-07-17T11:15:47;30.90;37.50
15298;DHT22;7750;48.796;9.026;2022-07-17T11:20:54;31.10;37.00
15298;DHT22;7750;48.796;9.026;2022-07-17T11:26:02;31.30;37.20
15298;DHT22;7750;48.796;9.026;2022-07-17T11:31:18;31.50;35.50
15298;DHT22;7750;48.796;9.026;2022-07-17T11:36:27;31.60;35.10
15298;DHT22;7750;48.796;9.026;2022-07-17T11:41:36;31.80;33.80
15298;DHT22;7750;48.796;9.026;2022-07-17T11:46:39;31.80;34.90
15298;DHT22;7750;48.796;9.026;2022-07-17T11:51:42;31.90;34.60
15298;DHT22;7750;48.796;9.026;2022-07-17T11:56:52;32.00;34.80
15298;DHT22;7750;48.796;9.026;2022-07-17T12:01:54;32.20;33.90
15298;DHT22;7750;48.796;9.026;2022-07-17T12:07:00;32.40;33.10
15298;DHT22;7750;48.796;9.026;2022-07-17T12:12:02;32.60;33.30
15298;DHT22;7750;48.796;9.026;2022-07-17T12:17:04;32.70;32.80
15298;DHT22;7750;48.796;9.026;2022-07-17T12:22:04;32.90;32.60
15298;DHT22;7750;48.796;9.026;2022-07-17T12:27:26;33.00;32.60
15298;DHT22;7750;48.796;9.026;2022-07-17T12:32:27;33.10;32.30
15298;DHT22;7750;48.796;9.026;2022-07-17T12:37:28;33.30;32.80
15298;DHT22;7750;48.796;9.026;2022-07-17T12:42:29;33.40;31.20
15298;DHT22;7750;48.796;9.026;2022-07-17T12:47:29;33.40;32.00
15298;DHT22;7750;48.796;9.026;2022-07-17T12:52:30;33.40;31.70
15298;DHT22;7750;48.796;9.026;2022-07-17T12:57:31;33.50;32.00
15298;DHT22;7750;48.796;9.026;2022-07-17T13:02:32;33.60;31.90
15298;DHT22;7750;48.796;9.026;2022-07-17T13:07:33;33.80;31.60
15298;DHT22;7750;48.796;9.026;2022-07-17T13:12:35;34.00;31.60
15298;DHT22;7750;48.796;9.026;2022-07-17T13:17:36;34.10;31.50
15298;DHT22;7750;48.796;9.026;2022-07-17T13:22:56;34.30;31.10
15298;DHT22;7750;48.796;9.026;2022-07-17T13:27:57;34.30;30.70
15298;DHT22;7750;48.796;9.026;2022-07-17T13:32:58;34.40;30.50
15298;DHT22;7750;48.796;9.026;2022-07-17T13:38:07;34.50;30.60
15298;DHT22;7750;48.796;9.026;2022-07-17T13:43:09;34.60;30.70
15298;DHT22;7750;48.796;9.026;2022-07-17T13:48:30;34.60;30.70
15298;DHT22;7750;48.796;9.026;2022-07-17T13:53:31;34.60;30.40
15298;DHT22;7750;48.796;9.026;2022-07-17T13:58:32;34.60;30.50
15298;DHT22;7750;48.796;9.026;2022-07-17T14:03:34;34.70;30.70
15298;DHT22;7750;48.796;9.026;2022-07-17T14:08:35;34.70;30.40
15298;DHT22;7750;48.796;9.026;2022-07-17T14:13:36;34.70;30.20
15298;DHT22;7750;48.796;9.026;2022-07-17T14:18:39;34.70;29.50
15298;DHT22;7750;48.796;9.026;2022-07-17T14:23:58;34.70;29.90
15298;DHT22;7750;48.796;9.026;2022-07-17T14:29:00;34.60;29.70
15298;DHT22;7750;48.796;9.026;2022-07-17T14:34:00;34.60;29.60
15298;DHT22;7750;48.796;9.026;2022-07-17T14:39:01;34.60;29.70
15298;DHT22;7750;48.796;9.026;2022-07-17T14:44:02;34.70;29.60
15298;DHT22;7750;48.796;9.026;2022-07-17T14:49:03;34.80;29.60
15298;DHT22;7750;48.796;9.026;2022-07-17T14:54:06;34.80;29.90
15298;DHT22;7750;48.796;9.026;2022-07-17T14:59:06;34.80;30.00
15298;DHT22;7750;48.796;9.026;2022-07-17T15:04:07;34.80;30.10
15298;DHT22;7750;48.796;9.026;2022-07-17T15:09:09;34.80;30.50
15298;DHT22;7750;48.796;9.026;2022-07-17T15:14:11;34.90;30.30
15298;DHT22;7750;48.796;9.026;2022-07-17T15:19:13;34.90;30.10
15298;DHT22;7750;48.796;9.026;2022-07-17T15:24:13;34.90;29.80
15298;DHT22;7750;48.796;9.026;2022-07-17T15:29:15;34.90;30.30
15298;DHT22;7750;48.796;9.026;2022-07-17T15:34:16;34.90;29.70
15298;DHT22;7750;48.796;9.026;2022-07-17T15:39:16;34.80;29.70
15298;DHT22;7750;48.796;9.026;2022-07-17T15:44:22;34.80;29.50
15298;DHT22;7750;48.796;9.026;2022-07-17T15:49:22;34.80;29.60
15298;DHT22;7750;48.796;9.026;2022-07-17T15:54:24;34.70;29.80
15298;DHT22;7750;48.796;9.026;2022-07-17T15:59:25;34.80;29.20
15298;DHT22;7750;48.796;9.026;2022-07-17T16:04:38;34.70;29.30
15298;DHT22;7750;48.796;9.026;2022-07-17T16:09:42;34.60;29.30
15298;DHT22;7750;48.796;9.026;2022-07-17T16:14:57;34.50;29.40
15298;DHT22;7750;48.796;9.026;2022-07-17T16:20:06;34.50;29.30
15298;DHT22;7750;48.796;9.026;2022-07-17T16:25:18;34.40;29.20
15298;DHT22;7750;48.796;9.026;2022-07-17T16:30:19;34.40;29.80
15298;DHT22;7750;48.796;9.026;2022-07-17T16:35:19;34.30;29.30
15298;DHT22;7750;48.796;9.026;2022-07-17T16:40:20;34.20;29.20
15298;DHT22;7750;48.796;9.026;2022-07-17T16:45:21;34.10;29.30
15298;DHT22;7750;48.796;9.026;2022-07-17T16:55:24;33.70;29.10
15298;DHT22;7750;48.796;9.026;2022-07-17T17:00:28;33.60;29.50
15298;DHT22;7750;48.796;9.026;2022-07-17T17:05:29;33.50;29.50
15298;DHT22;7750;48.796;9.026;2022-07-17T17:10:31;33.40;29.50
15298;DHT22;7750;48.796;9.026;2022-07-17T17:15:35;33.40;29.50
15298;DHT22;7750;48.796;9.026;2022-07-17T17:20:35;33.30;29.40
15298;DHT22;7750;48.796;9.026;2022-07-17T17:25:36;33.80;28.90
15298;DHT22;7750;48.796;9.026;2022-07-17T17:30:37;33.40;29.20
15298;DHT22;7750;48.796;9.026;2022-07-17T17:35:38;33.20;29.40
15298;DHT22;7750;48.796;9.026;2022-07-17T17:40:38;33.00;29.40
15298;DHT22;7750;48.796;9.026;2022-07-17T17:45:39;32.80;29.50
15298;DHT22;7750;48.796;9.026;2022-07-17T17:50:40;32.70;29.80
15298;DHT22;7750;48.796;9.026;2022-07-17T17:55:40;32.60;29.60
15298;DHT22;7750;48.796;9.026;2022-07-17T18:00:41;32.50;29.80
15298;DHT22;7750;48.796;9.026;2022-07-17T18:05:42;32.30;29.70
15298;DHT22;7750;48.796;9.026;2022-07-17T18:10:43;32.20;30.00
15298;DHT22;7750;48.796;9.026;2022-07-17T18:15:43;32.00;29.90
15298;DHT22;7750;48.796;9.026;2022-07-17T18:20:44;31.90;30.00
15298;DHT22;7750;48.796;9.026;2022-07-17T18:25:45;31.70;30.30
15298;DHT22;7750;48.796;9.026;2022-07-17T18:30:46;31.70;30.10
15298;DHT22;7750;48.796;9.026;2022-07-17T18:40:47;31.40;30.30
15298;DHT22;7750;48.796;9.026;2022-07-17T18:45:52;31.20;31.80
15298;DHT22;7750;48.796;9.026;2022-07-17T18:50:53;31.10;32.10
15298;DHT22;7750;48.796;9.026;2022-07-17T18:55:53;30.90;32.10
15298;DHT22;7750;48.796;9.026;2022-07-17T19:00:55;30.70;32.50
15298;DHT22;7750;48.796;9.026;2022-07-17T19:05:55;30.60;32.80
15298;DHT22;7750;48.796;9.026;2022-07-17T19:10:56;30.40;32.70
15298;DHT22;7750;48.796;9.026;2022-07-17T19:15:57;30.20;32.70
15298;DHT22;7750;48.796;9.026;2022-07-17T19:20:57;30.00;32.70
15298;DHT22;7750;48.796;9.026;2022-07-17T19:25:58;29.70;32.90
15298;DHT22;7750;48.796;9.026;2022-07-17T19:30:59;29.50;33.00
15298;DHT22;7750;48.796;9.026;2022-07-17T19:36:00;29.30;33.10
15298;DHT22;7750;48.796;9.026;2022-07-17T19:41:01;29.10;33.10
15298;DHT22;7750;48.796;9.026;2022-07-17T19:46:02;28.90;33.40
15298;DHT22;7750;48.796;9.026;2022-07-17T19:51:03;28.70;33.30
15298;DHT22;7750;48.796;9.026;2022-07-17T19:56:04;28.50;33.30
15298;DHT22;7750;48.796;9.026;2022-07-17T20:01:18;28.40;33.70
15298;DHT22;7750;48.796;9.026;2022-07-17T20:06:19;28.10;33.80
15298;DHT22;7750;48.796;9.026;2022-07-17T20:11:20;28.00;34.00
15298;DHT22;7750;48.796;9.026;2022-07-17T20:16:24;27.80;34.50
15298;DHT22;7750;48.796;9.026;2022-07-17T20:21:31;27.70;34.10
15298;DHT22;7750;48.796;9.026;2022-07-17T20:26:32;27.60;34.30
15298;DHT22;7750;48.796;9.026;2022-07-17T20:31:38;27.40;34.20
15298;DHT22;7750;48.796;9.026;2022-07-17T20:36:52;27.30;34.40
15298;DHT22;7750;48.796;9.026;2022-07-17T20:41:55;27.10;34.30
15298;DHT22;7750;48.796;9.026;2022-07-17T20:46:56;27.00;34.50
15298;DHT22;7750;48.796;9.026;2022-07-17T20:51:57;26.80;34.30
15298;DHT22;7750;48.796;9.026;2022-07-17T20:56:58;26.70;34.60
15298;DHT22;7750;48.796;9.026;2022-07-17T21:02:02;26.50;34.80
15298;DHT22;7750;48.796;9.026;2022-07-17T21:07:03;26.40;35.00
15298;DHT22;7750;48.796;9.026;2022-07-17T21:12:04;26.30;35.10
15298;DHT22;7750;48.796;9.026;2022-07-17T21:17:05;26.10;35.10
15298;DHT22;7750;48.796;9.026;2022-07-17T21:22:08;26.00;35.10
15298;DHT22;7750;48.796;9.026;2022-07-17T21:27:09;25.90;35.60
15298;DHT22;7750;48.796;9.026;2022-07-17T21:32:09;25.70;35.70
15298;DHT22;7750;48.796;9.026;2022-07-17T21:37:10;25.60;35.90
15298;DHT22;7750;48.796;9.026;2022-07-17T21:42:11;25.50;36.20
15298;DHT22;7750;48.796;9.026;2022-07-17T21:47:11;25.40;36.40
15298;DHT22;7750;48.796;9.026;2022-07-17T21:52:12;25.30;36.60
15298;DHT22;7750;48.796;9.026;2022-07-17T21:57:13;25.20;36.70
15298;DHT22;7750;48.796;9.026;2022-07-17T22:02:14;25.10;37.10
15298;DHT22;7750;48.796;9.026;2022-07-17T22:07:15;25.00;37.40
15298;DHT22;7750;48.796;9.026;2022-07-17T22:12:16;24.80;37.50
15298;DHT22;7750;48.796;9.026;2022-07-17T22:17:17;24.70;37.90
15298;DHT22;7750;48.796;9.026;2022-07-17T22:22:19;24.60;38.20
15298;DHT22;7750;48.796;9.026;2022-07-17T22:27:20;24.40;38.10
15298;DHT22;7750;48.796;9.026;2022-07-17T22:32:20;24.40;38.80
15298;DHT22;7750;48.796;9.026;2022-07-17T22:37:21;24.20;38.90
15298;DHT22;7750;48.796;9.026;2022-07-17T22:42:22;24.10;39.40
15298;DHT22;7750;48.796;9.026;2022-07-17T22:47:22;24.00;39.70
15298;DHT22;7750;48.796;9.026;2022-07-17T22:52:23;23.90;39.80
15298;DHT22;7750;48.796;9.026;2022-07-17T22:57:24;23.80;40.00
15298;DHT22;7750;48.796;9.026;2022-07-17T23:02:24;23.70;39.90
15298;DHT22;7750;48.796;9.026;2022-07-17T23:07:25;23.60;40.30
15298;DHT22;7750;48.796;9.026;2022-07-17T23:12:26;23.50;40.50
15298;DHT22;7750;48.796;9.026;2022-07-17T23:17:26;23.40;40.60
15298;DHT22;7750;48.796;9.026;2022-07-17T23:22:27;23.30;40.70
15298;DHT22;7750;48.796;9.026;2022-07-17T23:27:29;23.20;40.80
15298;DHT22;7750;48.796;9.026;2022-07-17T23:32:29;23.10;41.10
15298;DHT22;7750;48.796;9.026;2022-07-17T23:37:31;23.00;41.10
15298;DHT22;7750;48.796;9.026;2022-07-17T23:42:33;22.90;41.30
15298;DHT22;7750;48.796;9.026;2022-07-17T23:47:34;22.80;41.60
15298;DHT22;7750;48.796;9.026;2022-07-17T23:52:35;22.70;41.80
15298;DHT22;7750;48.796;9.026;2022-07-17T23:57:36;22.60;42.20
